EST,Max TemperatureF,Mean TemperatureF,Min TemperatureF,Max Dew PointF,MeanDew PointF,Min DewpointF,Max Humidity, Mean Humidity, Min Humidity, Max Sea Level PressureIn, Mean Sea Level PressureIn, Min Sea Level PressureIn, Max VisibilityMiles, Mean VisibilityMiles, Min VisibilityMiles, Max Wind SpeedMPH, Mean Wind SpeedMPH, Max Gust SpeedMPH,PrecipitationIn, CloudCover, Events, WindDirDegrees
2013-1-1,73,58,43,62,54,40,93,77,61,30.18,30.08,30.00,10,9,3,15,5,20,0.00,6,,167
2013-1-2,69,64,59,65,59,52,93,80,67,30.12,30.03,29.97,10,9,4,15,5,20,0.03,8,Rain,306
2013-1-3,59,53,46,52,46,42,93,80,66,30.30,30.20,30.09,10,8,2,20,5,158,0.29,7,Rain,359
2013-1-4,56,48,40,42,38,35,92,72,51,30.36,30.32,30.27,10,10,9,22,5,132,0.00,0,,358
2013-1-5,62,52,41,44,34,25,89,59,28,30.38,30.32,30.26,10,10,10,10,3,12,0.01,2,Rain,40
2013-1-6,56,52,48,46,44,41,86,74,61,30.25,30.22,30.16,10,9,2,8,2,79,0.06,7,Rain,18
2013-1-7,60,54,47,44,39,34,74,59,44,30.32,30.26,30.23,10,10,10,14,6,101,T,3,Rain,42
2013-1-8,73,62,50,59,51,42,84,67,47,30.30,30.24,30.20,10,10,10,9,5,,0.00,5,,61
2013-1-9,74,69,63,68,63,60,93,83,73,30.33,30.28,30.22,10,9,2,12,5,14,0.04,8,Rain,70
2013-1-10,80,71,62,66,64,58,93,72,50,30.32,30.29,30.24,10,9,2,16,6,20,0.00,6,,115
2013-1-11,80,69,57,62,59,54,90,69,48,30.24,30.19,30.14,10,10,10,18,7,25,0.00,2,Fog,165
2013-1-12,79,65,51,64,57,48,96,75,54,30.18,30.14,30.09,10,7,1,16,4,21,0.00,4,Fog,168
2013-1-13,78,68,57,64,60,55,100,85,50,30.14,30.09,30.05,10,6,0,17,3,21,0.00,5,Fog,139
2013-1-14,81,71,61,63,60,57,96,83,40,30.18,30.12,30.09,10,6,0,16,3,22,0.00,3,Fog,150
2013-1-15,78,66,53,64,57,51,93,70,47,30.13,30.09,30.04,10,7,0,20,5,25,0.00,4,Fog,161
2013-1-16,78,72,65,66,64,63,100,85,69,30.08,30.02,29.97,10,9,0,16,7,22,T,8,Fog,171
2013-1-17,71,58,44,66,49,30,93,68,43,30.22,30.02,29.93,10,10,7,28,15,35,T,7,Rain,262
2013-1-18,62,52,42,37,30,24,76,50,23,30.44,30.36,30.24,10,10,10,14,8,29,0.00,1,,31
2013-1-19,72,59,45,45,36,26,62,49,35,30.39,30.31,30.22,10,10,10,13,5,15,0.00,3,,49
2013-1-20,72,58,44,48,44,40,86,62,37,30.24,30.18,30.11,10,10,8,12,3,17,0.00,2,,339
2013-1-21,69,54,39,41,37,32,89,58,27,30.19,30.12,30.07,10,10,10,10,3,14,0.00,0,,325
2013-1-22,62,48,33,39,26,19,71,46,20,30.35,30.27,30.15,10,10,10,15,4,18,0.00,0,,357
2013-1-23,66,48,29,39,31,25,85,58,30,30.44,30.35,30.31,10,10,7,10,2,14,0.00,0,,310
2013-1-24,74,57,39,50,42,35,85,59,33,30.33,30.28,30.23,10,7,2,18,5,23,0.00,1,,291
2013-1-25,72,59,46,52,46,40,86,63,40,30.34,30.26,30.19,10,10,9,16,6,23,0.00,3,,164
2013-1-26,78,62,45,57,51,43,93,68,42,30.25,30.21,30.16,10,7,0,13,4,18,0.00,4,Fog,297
2013-1-27,76,63,49,53,51,44,89,66,43,30.35,30.29,30.25,10,8,5,15,5,20,0.00,3,,73
2013-1-28,76,65,54,60,56,50,89,74,58,30.35,30.30,30.25,10,10,9,15,5,20,0.00,5,,136
2013-1-29,79,68,57,64,61,54,87,71,54,30.23,30.14,30.05,10,10,6,18,7,22,0.00,6,,157
2013-1-30,75,66,57,68,63,42,84,71,57,30.04,29.89,29.72,10,9,1,31,14,41,0.42,8,Rain,193
2013-1-31,59,46,33,39,27,18,76,49,21,30.29,30.17,29.97,10,10,10,21,9,29,0.00,0,,307